createdAt,value
2023-02-23T00:01:40.818Z,10.80
2023-02-23T00:04:08.940Z,10.67
2023-02-23T00:06:37.764Z,11.03
2023-02-23T00:09:12.243Z,11.03
2023-02-23T00:11:41.373Z,12.03
2023-02-23T00:14:09.291Z,14.30
2023-02-23T00:16:37.433Z,12.93
2023-02-23T00:19:08.197Z,14.10
2023-02-23T00:21:36.143Z,13.20
2023-02-23T00:24:05.684Z,15.73
2023-02-23T00:26:35.186Z,11.93
2023-02-23T00:29:07.027Z,16.87
2023-02-23T00:31:35.114Z,12.33
2023-02-23T00:34:04.180Z,14.77
2023-02-23T00:36:34.952Z,13.67
2023-02-23T00:39:10.988Z,14.67
2023-02-23T00:41:38.573Z,12.17
2023-02-23T00:44:07.501Z,15.27
2023-02-23T00:46:35.145Z,16.23
2023-02-23T00:49:04.814Z,12.30
2023-02-23T00:51:32.824Z,14.43
2023-02-23T00:54:01.498Z,13.03
2023-02-23T00:56:29.230Z,13.27
2023-02-23T00:58:57.366Z,17.17
2023-02-23T01:01:26.747Z,19.87
2023-02-23T01:03:54.373Z,14.70
2023-02-23T01:06:22.723Z,13.63
2023-02-23T01:08:52.080Z,14.60
2023-02-23T01:11:21.844Z,11.90
2023-02-23T01:13:52.448Z,15.43
2023-02-23T01:16:22.548Z,16.07
2023-02-23T01:18:51.560Z,14.03
2023-02-23T01:21:21.579Z,13.30
2023-02-23T01:23:49.879Z,14.90
2023-02-23T01:26:19.151Z,14.43
2023-02-23T01:28:50.366Z,16.57
2023-02-23T01:31:18.870Z,14.00
2023-02-23T01:33:46.988Z,15.87
2023-02-23T01:36:16.068Z,15.60
2023-02-23T01:38:43.765Z,12.83
2023-02-23T01:41:11.337Z,14.43
2023-02-23T01:43:57.588Z,15.43
2023-02-23T01:46:25.225Z,15.33
2023-02-23T01:48:56.425Z,12.60
2023-02-23T01:51:29.255Z,15.20
2023-02-23T01:54:01.487Z,13.50
2023-02-23T01:56:32.456Z,14.57
2023-02-23T01:59:06.119Z,14.30
2023-02-23T02:01:33.729Z,16.93
2023-02-23T02:04:05.687Z,15.53
2023-02-23T02:06:37.073Z,14.50
2023-02-23T02:09:10.160Z,16.43
2023-02-23T02:11:39.226Z,21.53
2023-02-23T02:14:12.852Z,18.73
2023-02-23T02:17:02.415Z,17.70
2023-02-23T02:20:14.996Z,18.90
2023-02-23T02:23:14.932Z,18.03
2023-02-23T02:26:03.714Z,17.33
2023-02-23T02:29:09.890Z,16.17
2023-02-23T02:32:11.032Z,17.83
2023-02-23T02:35:11.550Z,18.47
2023-02-23T02:38:01.678Z,17.10
2023-02-23T02:40:35.024Z,18.57
2023-02-23T02:43:11.723Z,17.60
2023-02-23T02:45:50.226Z,16.40
2023-02-23T02:48:31.029Z,18.23
2023-02-23T02:51:09.417Z,18.23
2023-02-23T02:53:46.455Z,18.57
2023-02-23T02:56:19.684Z,17.70
2023-02-23T02:58:50.056Z,23.10
2023-02-23T03:01:36.902Z,22.83
2023-02-23T03:04:39.160Z,20.83
2023-02-23T03:07:34.073Z,21.30
2023-02-23T03:10:29.694Z,23.63
2023-02-23T03:13:24.131Z,22.50
2023-02-23T03:16:19.083Z,25.43
2023-02-23T03:19:25.146Z,25.60
2023-02-23T03:22:17.225Z,29.77
2023-02-23T03:25:09.236Z,27.87
2023-02-23T03:28:05.532Z,25.20
2023-02-23T03:31:04.688Z,24.97
2023-02-23T03:33:58.130Z,26.13
2023-02-23T03:36:45.887Z,21.57
2023-02-23T03:39:41.357Z,23.03
2023-02-23T03:42:31.847Z,23.80
2023-02-23T03:45:23.471Z,20.67
2023-02-23T03:48:10.282Z,20.80
2023-02-23T03:50:59.773Z,21.13
2023-02-23T03:53:50.299Z,23.33
2023-02-23T03:56:39.909Z,22.07
2023-02-23T03:59:26.802Z,21.97
2023-02-23T04:02:14.349Z,20.30
2023-02-23T04:05:01.682Z,25.87
2023-02-23T04:07:47.921Z,23.77
2023-02-23T04:10:33.290Z,21.37
2023-02-23T04:13:14.483Z,22.90
2023-02-23T04:15:47.989Z,25.77
2023-02-23T04:18:19.493Z,26.40
2023-02-23T04:20:47.232Z,26.37
2023-02-23T04:23:14.934Z,28.53
2023-02-23T04:25:42.592Z,26.87
2023-02-23T04:28:10.275Z,27.50
2023-02-23T04:30:37.989Z,26.80
2023-02-23T04:33:05.666Z,26.20
2023-02-23T04:35:34.703Z,28.30
2023-02-23T04:38:02.383Z,27.10
2023-02-23T04:40:30.470Z,28.13
2023-02-23T04:42:58.276Z,32.47
2023-02-23T04:45:26.861Z,28.47
2023-02-23T04:47:54.533Z,27.50
2023-02-23T04:50:22.579Z,25.93
2023-02-23T04:52:53.064Z,27.20
2023-02-23T04:55:24.137Z,26.17
2023-02-23T04:57:52.333Z,30.37
2023-02-23T05:00:20.521Z,26.83
2023-02-23T05:02:50.239Z,28.93
2023-02-23T05:05:18.603Z,27.73
2023-02-23T05:07:46.209Z,24.57
2023-02-23T05:10:15.212Z,28.73
2023-02-23T05:12:42.930Z,32.30
2023-02-23T05:15:12.040Z,29.90
2023-02-23T05:17:42.250Z,31.97
2023-02-23T05:20:11.368Z,29.60
2023-02-23T05:22:39.052Z,30.10
2023-02-23T05:25:08.747Z,32.80
2023-02-23T05:27:37.873Z,31.97
2023-02-23T05:30:07.798Z,33.03
2023-02-23T05:32:35.721Z,30.57
2023-02-23T05:35:04.041Z,30.87
2023-02-23T05:37:31.795Z,33.97
2023-02-23T05:39:59.463Z,36.33
2023-02-23T05:42:27.194Z,32.30
2023-02-23T05:44:56.202Z,36.37
2023-02-23T05:47:23.868Z,34.80
2023-02-23T05:49:51.593Z,32.73
2023-02-23T05:52:19.441Z,34.17
2023-02-23T05:54:48.027Z,34.07
2023-02-23T06:00:13.852Z,34.83
2023-02-23T06:02:42.715Z,31.23
2023-02-23T06:05:11.921Z,28.17
2023-02-23T06:07:40.187Z,30.77
2023-02-23T06:10:09.084Z,27.67
2023-02-23T06:12:37.195Z,30.73
2023-02-23T06:15:05.819Z,31.73
2023-02-23T06:17:35.223Z,31.67
2023-02-23T06:20:05.083Z,35.27
2023-02-23T06:22:33.270Z,32.53
2023-02-23T06:25:02.612Z,32.33
2023-02-23T06:27:30.766Z,31.43
2023-02-23T06:29:59.016Z,29.77
2023-02-23T06:32:27.717Z,36.20
2023-02-23T06:34:57.093Z,32.33
2023-02-23T06:37:25.195Z,35.67
2023-02-23T06:39:53.253Z,35.07
2023-02-23T06:42:22.244Z,34.47
2023-02-23T06:44:50.196Z,33.73
2023-02-23T06:47:17.965Z,33.70
2023-02-23T06:49:45.651Z,28.60
2023-02-23T06:52:15.107Z,33.10
2023-02-23T06:54:43.273Z,39.00
2023-02-23T06:57:11.499Z,28.23
2023-02-23T06:59:39.239Z,33.57
2023-02-23T07:02:07.431Z,34.97
2023-02-23T07:04:35.493Z,36.50
2023-02-23T07:07:03.692Z,36.63
2023-02-23T07:09:32.726Z,30.80
2023-02-23T07:12:00.897Z,36.70
2023-02-23T07:14:29.339Z,33.27
2023-02-23T07:16:56.971Z,36.53
2023-02-23T07:19:24.665Z,29.00
2023-02-23T07:21:52.410Z,30.17
2023-02-23T07:24:20.106Z,36.10
2023-02-23T07:26:49.542Z,35.90
2023-02-23T07:29:17.586Z,36.70
2023-02-23T07:31:45.274Z,31.77
2023-02-23T07:34:13.057Z,38.43
2023-02-23T07:36:40.751Z,31.80
2023-02-23T07:39:08.738Z,38.30
2023-02-23T07:41:36.391Z,28.53
2023-02-23T07:44:05.689Z,30.83
2023-02-23T07:46:33.380Z,30.20
2023-02-23T07:49:01.092Z,24.37
2023-02-23T07:51:28.760Z,25.63
2023-02-23T07:53:56.513Z,33.03
2023-02-23T07:56:24.275Z,39.40
2023-02-23T07:58:51.916Z,30.87
2023-02-23T08:01:21.282Z,32.73
2023-02-23T08:03:50.443Z,36.17
2023-02-23T08:06:18.575Z,40.23
2023-02-23T08:08:46.776Z,40.77
2023-02-23T08:11:15.802Z,40.43
2023-02-23T08:13:43.606Z,43.07
2023-02-23T08:16:12.511Z,38.97
2023-02-23T08:18:41.603Z,42.73
2023-02-23T08:21:09.245Z,40.73
2023-02-23T08:23:36.878Z,44.13
2023-02-23T08:26:05.017Z,42.03
2023-02-23T08:28:32.719Z,41.57
2023-02-23T08:31:00.794Z,45.03
2023-02-23T08:33:28.551Z,41.57
2023-02-23T08:36:02.661Z,43.87
2023-02-23T08:38:30.664Z,45.33
2023-02-23T08:41:01.204Z,40.37
2023-02-23T08:43:28.873Z,46.33
2023-02-23T08:45:56.626Z,48.30
2023-02-23T08:48:24.514Z,42.07
2023-02-23T08:50:57.373Z,45.23
2023-02-23T08:53:27.150Z,43.43
2023-02-23T08:55:58.938Z,41.90
2023-02-23T08:58:26.656Z,43.33
2023-02-23T09:00:54.400Z,45.73
2023-02-23T09:03:22.226Z,42.43
2023-02-23T09:05:50.232Z,41.37
2023-02-23T09:08:17.841Z,41.53
2023-02-23T09:10:46.904Z,42.07
2023-02-23T09:13:15.336Z,42.03
2023-02-23T09:15:43.556Z,40.20
2023-02-23T09:18:15.282Z,41.13
2023-02-23T09:20:43.840Z,40.10
2023-02-23T09:23:12.225Z,44.50
2023-02-23T09:25:44.223Z,39.10
2023-02-23T09:28:15.131Z,41.90
2023-02-23T09:30:45.026Z,44.60
2023-02-23T09:33:13.440Z,44.13
2023-02-23T09:35:41.837Z,44.17
2023-02-23T09:38:10.121Z,42.07
2023-02-23T09:40:46.682Z,42.17
2023-02-23T09:43:21.558Z,41.97
2023-02-23T09:45:52.674Z,41.03
2023-02-23T09:48:23.587Z,42.37
2023-02-23T09:50:55.061Z,43.77
2023-02-23T09:53:31.629Z,46.03
2023-02-23T09:56:02.118Z,41.87
2023-02-23T09:58:34.335Z,42.10
2023-02-23T10:01:23.808Z,38.50
2023-02-23T10:03:56.575Z,41.50
2023-02-23T10:06:24.342Z,43.00
2023-02-23T10:09:04.175Z,42.53
2023-02-23T10:11:40.779Z,44.27
2023-02-23T10:14:24.254Z,40.33
2023-02-23T10:17:08.698Z,43.93
2023-02-23T10:19:45.539Z,46.63
2023-02-23T10:22:16.784Z,40.00
2023-02-23T10:24:50.037Z,36.70
2023-02-23T10:27:19.787Z,41.83
2023-02-23T10:29:51.441Z,41.87
2023-02-23T10:32:22.468Z,39.10
2023-02-23T10:34:56.718Z,35.63
2023-02-23T10:37:26.128Z,34.97
2023-02-23T10:39:54.554Z,35.37
2023-02-23T10:42:28.881Z,37.67
2023-02-23T10:44:58.722Z,36.93
2023-02-23T10:47:29.625Z,35.90
2023-02-23T10:49:58.766Z,38.27
2023-02-23T10:52:33.203Z,38.97
2023-02-23T10:55:03.401Z,38.23
2023-02-23T10:57:33.812Z,34.67
2023-02-23T11:00:09.756Z,29.37
2023-02-23T11:02:37.703Z,30.10
2023-02-23T11:05:06.821Z,26.83
2023-02-23T11:07:35.589Z,27.23
2023-02-23T11:10:26.186Z,28.37
2023-02-23T11:12:53.874Z,26.30
2023-02-23T11:15:49.429Z,26.10
2023-02-23T11:18:22.676Z,22.50
2023-02-23T11:20:51.054Z,28.97
2023-02-23T11:23:24.261Z,25.33
2023-02-23T11:25:56.476Z,27.90
2023-02-23T11:28:30.250Z,26.70
2023-02-23T11:31:03.743Z,30.63
2023-02-23T11:33:35.834Z,28.00
2023-02-23T11:36:17.547Z,24.87
2023-02-23T11:38:46.636Z,23.27
2023-02-23T11:41:22.036Z,25.50
2023-02-23T11:43:51.201Z,27.07
2023-02-23T11:46:23.009Z,23.03
2023-02-23T11:48:53.984Z,25.47
2023-02-23T11:51:28.556Z,24.47
2023-02-23T11:53:56.746Z,17.03
2023-02-23T11:56:26.532Z,21.27
2023-02-23T11:58:56.468Z,17.63
2023-02-23T12:01:39.577Z,16.10
2023-02-23T12:04:08.419Z,16.00
2023-02-23T12:06:38.041Z,16.30
2023-02-23T12:09:18.420Z,18.33
2023-02-23T12:11:52.872Z,16.97
2023-02-23T12:14:30.420Z,15.33
2023-02-23T12:17:05.437Z,16.93
2023-02-23T12:19:37.994Z,17.97
2023-02-23T12:22:12.150Z,19.13
2023-02-23T12:24:45.456Z,14.60
2023-02-23T12:27:17.574Z,13.13
2023-02-23T12:30:00.948Z,11.80
2023-02-23T12:32:44.732Z,12.73
2023-02-23T12:35:18.805Z,13.03
2023-02-23T12:37:49.276Z,13.77
2023-02-23T12:40:20.271Z,11.50
2023-02-23T12:42:57.835Z,12.33
2023-02-23T12:45:34.184Z,15.27
2023-02-23T12:48:13.055Z,14.27
2023-02-23T12:50:48.250Z,15.37
2023-02-23T12:53:22.895Z,10.83
2023-02-23T12:56:08.034Z,10.67
2023-02-23T12:58:42.499Z,12.93
2023-02-23T13:01:13.299Z,11.43
2023-02-23T13:04:22.244Z,11.97
2023-02-23T13:06:58.751Z,11.07
2023-02-23T13:09:39.742Z,13.30
2023-02-23T13:12:19.346Z,13.33
2023-02-23T13:14:55.030Z,13.03
2023-02-23T13:17:37.691Z,12.37
2023-02-23T13:20:15.311Z,12.63
2023-02-23T13:22:48.731Z,16.33
2023-02-23T13:25:30.060Z,11.03
2023-02-23T13:28:01.476Z,11.40
2023-02-23T13:30:33.060Z,14.60
2023-02-23T13:33:03.400Z,13.57
2023-02-23T13:35:38.360Z,12.57
2023-02-23T13:38:16.269Z,12.20
2023-02-23T13:40:52.089Z,13.43
2023-02-23T13:43:29.049Z,13.53
2023-02-23T13:46:06.634Z,11.67
2023-02-23T13:48:56.288Z,12.07
2023-02-23T13:51:36.721Z,13.27
2023-02-23T13:54:08.222Z,9.50
2023-02-23T13:56:43.964Z,10.93
2023-02-23T13:59:20.587Z,13.53
2023-02-23T14:01:53.240Z,10.37
2023-02-23T14:04:25.192Z,9.83
2023-02-23T14:06:58.718Z,13.07
2023-02-23T14:09:32.270Z,9.17
2023-02-23T14:12:16.750Z,10.13
2023-02-23T14:14:46.206Z,13.73
2023-02-23T14:17:42.395Z,11.87
2023-02-23T14:20:29.683Z,13.40
2023-02-23T14:23:17.133Z,12.57
2023-02-23T14:25:50.552Z,10.33
2023-02-23T14:28:34.917Z,11.60
2023-02-23T14:31:20.405Z,10.50
2023-02-23T14:33:58.385Z,10.13
2023-02-23T14:36:34.562Z,10.87
2023-02-23T14:39:07.758Z,14.47
2023-02-23T14:41:41.863Z,7.83
2023-02-23T14:44:28.267Z,8.97
2023-02-23T14:47:01.056Z,11.00
2023-02-23T14:49:34.946Z,9.87
2023-02-23T14:52:07.817Z,7.13
2023-02-23T14:54:38.638Z,9.40
2023-02-23T14:57:08.721Z,8.80
2023-02-23T14:59:41.106Z,8.07
2023-02-23T15:02:11.367Z,10.30
2023-02-23T15:04:39.805Z,12.10
2023-02-23T15:07:11.726Z,11.10
2023-02-23T15:09:43.677Z,11.00
2023-02-23T15:12:17.274Z,12.03
2023-02-23T15:14:45.850Z,10.87
2023-02-23T15:17:20.653Z,13.80
2023-02-23T15:20:05.944Z,14.70
2023-02-23T15:22:41.919Z,10.33
2023-02-23T15:25:17.393Z,11.43
2023-02-23T15:27:47.060Z,12.83
2023-02-23T15:30:27.590Z,13.17
2023-02-23T15:33:04.089Z,13.47
2023-02-23T15:35:37.966Z,18.23
2023-02-23T15:38:17.888Z,15.63
2023-02-23T15:40:58.915Z,16.50
2023-02-23T15:43:29.882Z,15.20
2023-02-23T15:46:03.503Z,16.60
2023-02-23T15:48:42.693Z,16.40
2023-02-23T15:51:23.593Z,17.27
2023-02-23T15:53:51.715Z,17.30
2023-02-23T15:56:26.531Z,17.83
2023-02-23T15:58:58.150Z,16.93
2023-02-23T16:01:28.463Z,18.87
2023-02-23T16:04:02.532Z,18.63
2023-02-23T16:06:35.025Z,16.20
2023-02-23T16:09:19.839Z,18.47
2023-02-23T16:11:52.954Z,16.90
2023-02-23T16:14:22.002Z,19.33
2023-02-23T16:17:08.355Z,19.20
2023-02-23T16:19:40.886Z,16.47
2023-02-23T16:22:20.270Z,21.97
2023-02-23T16:24:58.425Z,22.87
2023-02-23T16:27:28.740Z,25.20
2023-02-23T16:30:06.571Z,18.07
2023-02-23T16:32:37.878Z,17.83
2023-02-23T16:35:15.542Z,16.97
2023-02-23T16:37:59.802Z,19.20
2023-02-23T16:40:28.081Z,17.67
2023-02-23T16:42:59.459Z,17.67
2023-02-23T16:45:29.463Z,22.83
2023-02-23T16:48:02.018Z,16.57
2023-02-23T16:50:30.217Z,15.37
2023-02-23T16:52:57.869Z,16.27
2023-02-23T16:55:28.371Z,16.00
2023-02-23T16:58:00.028Z,17.77
2023-02-23T17:00:30.583Z,16.97
2023-02-23T17:03:00.578Z,17.67
2023-02-23T17:05:30.317Z,16.67
2023-02-23T17:07:58.961Z,18.63
2023-02-23T17:10:29.735Z,17.27
2023-02-23T17:13:02.440Z,17.07
2023-02-23T17:15:32.814Z,14.77
2023-02-23T17:18:01.110Z,15.63
2023-02-23T17:20:29.628Z,14.70
2023-02-23T17:22:59.447Z,16.97
2023-02-23T17:25:28.296Z,15.93
2023-02-23T17:27:57.255Z,14.73
2023-02-23T17:30:27.446Z,14.60
2023-02-23T17:32:57.297Z,15.37
2023-02-23T17:35:25.689Z,19.63
2023-02-23T17:37:53.716Z,23.77
2023-02-23T17:40:28.628Z,20.80
2023-02-23T17:42:57.396Z,17.40
2023-02-23T17:45:27.462Z,16.63
2023-02-23T17:47:55.581Z,18.70
2023-02-23T17:50:24.093Z,18.40
2023-02-23T17:52:52.755Z,17.43
2023-02-23T17:55:22.021Z,15.57
2023-02-23T17:57:49.917Z,15.27
2023-02-23T18:00:19.744Z,15.70
2023-02-23T18:02:49.398Z,16.13
2023-02-23T18:05:18.034Z,16.40
2023-02-23T18:07:48.297Z,20.13
2023-02-23T18:10:17.334Z,15.93
2023-02-23T18:12:45.539Z,14.53
2023-02-23T18:15:13.489Z,14.83
2023-02-23T18:17:41.378Z,17.07
2023-02-23T18:20:14.868Z,18.77
2023-02-23T18:22:42.789Z,16.97
2023-02-23T18:25:19.633Z,15.97
2023-02-23T18:27:51.099Z,19.07
2023-02-23T18:30:19.065Z,18.57
2023-02-23T18:32:47.226Z,19.27
2023-02-23T18:35:16.628Z,19.43
2023-02-23T18:37:44.354Z,17.50
2023-02-23T18:40:21.123Z,18.53
2023-02-23T18:42:51.507Z,21.37
2023-02-23T18:45:19.190Z,21.20
2023-02-23T18:47:46.851Z,17.67
2023-02-23T18:50:18.933Z,32.70
2023-02-23T18:52:47.403Z,25.50
2023-02-23T18:55:15.704Z,28.27
2023-02-23T18:57:43.425Z,19.63
2023-02-23T19:00:13.438Z,19.23
2023-02-23T19:02:42.216Z,19.23
2023-02-23T19:05:12.835Z,18.33
2023-02-23T19:07:42.330Z,19.60
2023-02-23T19:10:13.078Z,18.17
2023-02-23T19:12:41.436Z,18.10
2023-02-23T19:15:10.593Z,17.93
2023-02-23T19:17:38.248Z,19.23
2023-02-23T19:20:12.873Z,16.37
2023-02-23T19:22:42.742Z,17.70
2023-02-23T19:25:14.086Z,17.87
2023-02-23T19:27:43.127Z,29.37
2023-02-23T19:30:11.944Z,33.83
2023-02-23T19:32:40.545Z,25.87
2023-02-23T19:35:11.197Z,24.50
2023-02-23T19:37:40.676Z,17.50
2023-02-23T19:40:11.814Z,17.67
2023-02-23T19:42:43.549Z,17.33
2023-02-23T19:45:11.379Z,18.67
2023-02-23T19:47:40.149Z,20.87
2023-02-23T19:50:08.766Z,17.37
2023-02-23T19:52:38.759Z,25.03
2023-02-23T19:55:07.867Z,16.37
2023-02-23T19:57:36.936Z,19.03
2023-02-23T20:00:11.489Z,18.50
2023-02-23T20:02:42.577Z,15.77
2023-02-23T20:05:11.113Z,17.43
2023-02-23T20:07:38.913Z,20.53
2023-02-23T20:10:08.353Z,16.33
2023-02-23T20:12:38.131Z,20.07
2023-02-23T20:15:06.975Z,16.60
2023-02-23T20:17:35.356Z,16.53
2023-02-23T20:20:06.804Z,16.93
2023-02-23T20:22:36.460Z,18.47
2023-02-23T20:25:05.912Z,17.47
2023-02-23T20:27:34.117Z,15.40
2023-02-23T20:30:03.728Z,16.93
2023-02-23T20:32:31.862Z,22.73
2023-02-23T20:35:01.730Z,18.87
2023-02-23T20:37:29.686Z,20.43
2023-02-23T20:39:57.408Z,21.43
2023-02-23T20:42:28.136Z,20.43
2023-02-23T20:44:56.014Z,17.40
2023-02-23T20:47:27.717Z,17.33
2023-02-23T20:49:55.497Z,18.60
2023-02-23T20:52:23.229Z,20.07
2023-02-23T20:54:50.952Z,17.10
2023-02-23T20:57:18.750Z,18.40
2023-02-23T20:59:46.763Z,16.60
2023-02-23T21:02:15.292Z,14.60
2023-02-23T21:04:44.520Z,18.77
2023-02-23T21:07:13.364Z,19.93
2023-02-23T21:09:41.628Z,17.27
2023-02-23T21:12:10.331Z,18.63
2023-02-23T21:14:38.232Z,19.00
2023-02-23T21:17:06.247Z,18.30
2023-02-23T21:19:33.977Z,19.20
2023-02-23T21:22:03.298Z,16.23
2023-02-23T21:24:33.901Z,20.40
2023-02-23T21:27:05.330Z,20.43
2023-02-23T21:29:33.430Z,18.13
2023-02-23T21:32:01.552Z,16.27
2023-02-23T21:34:29.388Z,19.80
2023-02-23T21:36:59.197Z,16.97
2023-02-23T21:39:28.491Z,17.57
2023-02-23T21:41:56.506Z,20.30
2023-02-23T21:44:24.757Z,21.43
2023-02-23T21:46:52.695Z,17.47
2023-02-23T21:49:20.906Z,16.37
2023-02-23T21:51:48.684Z,14.63
2023-02-23T21:54:16.512Z,15.67
2023-02-23T21:56:45.681Z,17.30
2023-02-23T21:59:13.392Z,16.47
2023-02-23T22:01:42.928Z,16.30
2023-02-23T22:04:14.321Z,17.13
2023-02-23T22:06:44.255Z,16.20
2023-02-23T22:09:15.514Z,14.13
2023-02-23T22:11:48.005Z,16.57
2023-02-23T22:14:17.975Z,21.50
2023-02-23T22:16:46.481Z,17.10
2023-02-23T22:19:14.725Z,15.00
2023-02-23T22:21:44.729Z,16.23
2023-02-23T22:24:14.529Z,18.03
2023-02-23T22:27:01.578Z,18.97
2023-02-23T22:29:29.717Z,19.07
2023-02-23T22:31:57.934Z,18.73
2023-02-23T22:34:25.767Z,16.40
2023-02-23T22:36:53.531Z,18.90
2023-02-23T22:39:21.568Z,21.37
2023-02-23T22:41:50.673Z,16.80
2023-02-23T22:44:22.561Z,18.03
2023-02-23T22:46:50.422Z,19.23
2023-02-23T22:49:20.071Z,18.50
2023-02-23T22:51:48.144Z,17.67
2023-02-23T22:54:17.343Z,20.47
2023-02-23T22:56:46.818Z,17.73
2023-02-23T22:59:17.507Z,18.63
2023-02-23T23:01:47.333Z,19.53
2023-02-23T23:04:15.209Z,20.80
2023-02-23T23:06:44.495Z,18.23
2023-02-23T23:09:13.412Z,16.70
2023-02-23T23:11:42.591Z,19.10
2023-02-23T23:14:11.452Z,19.33
2023-02-23T23:16:47.841Z,20.40
2023-02-23T23:19:17.877Z,18.27
2023-02-23T23:21:46.753Z,20.83
2023-02-23T23:24:15.565Z,19.93
2023-02-23T23:26:44.231Z,17.20
2023-02-23T23:29:13.803Z,17.50
2023-02-23T23:31:46.096Z,17.57
2023-02-23T23:34:16.424Z,18.53
2023-02-23T23:36:49.089Z,17.63
2023-02-23T23:39:18.099Z,18.47
2023-02-23T23:41:48.004Z,19.17
2023-02-23T23:44:17.025Z,18.03
2023-02-23T23:46:47.338Z,18.13
2023-02-23T23:49:17.132Z,21.83
2023-02-23T23:51:47.788Z,20.70
2023-02-23T23:54:17.853Z,16.83
2023-02-23T23:56:46.122Z,19.63
2023-02-23T23:59:16.638Z,20.37
